Time;durP1;ratioP1;P1;durP2;ratioP2;P2;SDS_P1;SDS_P2;PMS_P1;PMS_P2;Temp;Humidity;BMP_temperature;BMP_pressure;BME280_temperature;BME280_humidity;BME280_pressure;Samples;Min_cycle;Max_cycle;Signal;HPM_P1;HPM_P2
2022/01/02 00:00:19;;;;;;;13.40;7.47;;;;;;;8.64;100.00;101329.06;5068105;28;20519;-67
2022/01/02 00:03:00;;;;;;;13.73;6.75;;;;;;;8.61;100.00;101330.06;5068523;28;20544;-68
2022/01/02 00:05:27;;;;;;;9.30;7.13;;;;;;;8.59;100.00;101333.81;5049725;28;20037;-67
2022/01/02 00:08:04;;;;;;;10.00;7.05;;;;;;;8.55;100.00;101327.78;5049859;28;20524;-67
2022/01/02 00:10:37;;;;;;;10.63;7.18;;;;;;;8.49;100.00;101328.22;5059497;28;20039;-67
2022/01/02 00:13:05;;;;;;;14.52;8.13;;;;;;;8.44;100.00;101327.63;5048160;28;20401;-67
2022/01/02 00:15:30;;;;;;;11.43;7.00;;;;;;;8.43;100.00;101335.75;5050058;28;20053;-68
2022/01/02 00:18:04;;;;;;;11.93;7.20;;;;;;;8.43;100.00;101338.41;5052408;28;20646;-67
2022/01/02 00:20:32;;;;;;;13.23;8.13;;;;;;;8.41;100.00;101332.28;5061289;28;20056;-68
2022/01/02 00:23:05;;;;;;;11.38;7.50;;;;;;;8.30;100.00;101321.41;5072053;28;20032;-66
2022/01/02 00:25:38;;;;;;;11.68;6.70;;;;;;;8.35;100.00;101332.69;5071577;28;20358;-68
2022/01/02 00:28:06;;;;;;;11.10;7.53;;;;;;;8.29;100.00;101333.06;5071919;28;20608;-67
2022/01/02 00:30:32;;;;;;;11.10;7.40;;;;;;;8.28;100.00;101331.34;5071524;28;20121;-67
2022/01/02 00:33:00;;;;;;;11.15;7.95;;;;;;;8.24;100.00;101330.69;5071739;28;20035;-68
2022/01/02 00:35:26;;;;;;;12.95;7.78;;;;;;;8.24;100.00;101341.38;5071481;28;20453;-67
2022/01/02 00:37:52;;;;;;;10.07;7.47;;;;;;;8.15;100.00;101341.91;5071850;28;20099;-68
2022/01/02 00:40:17;;;;;;;11.00;7.28;;;;;;;8.11;100.00;101340.38;5071536;28;20123;-67
2022/01/02 00:42:43;;;;;;;10.30;7.53;;;;;;;8.03;100.00;101333.78;5071714;28;20461;-67
2022/01/02 00:45:18;;;;;;;9.02;6.63;;;;;;;7.99;100.00;101337.59;5071844;28;20086;-67
2022/01/02 00:48:06;;;;;;;10.25;7.10;;;;;;;7.91;100.00;101337.22;5053605;28;20028;-68
2022/01/02 00:50:44;;;;;;;10.32;7.30;;;;;;;7.85;100.00;101333.09;5053249;28;20032;-68
2022/01/02 00:53:13;;;;;;;9.80;7.32;;;;;;;7.74;100.00;101324.03;5071379;28;20107;-68
2022/01/02 00:55:42;;;;;;;11.15;7.45;;;;;;;7.72;100.00;101329.44;5070861;28;20485;-68
2022/01/02 00:58:19;;;;;;;12.23;7.82;;;;;;;7.67;100.00;101330.69;5071451;28;20032;-68
2022/01/02 01:00:48;;;;;;;13.43;7.47;;;;;;;7.69;100.00;101347.44;5071435;28;20024;-67
2022/01/02 01:03:25;;;;;;;10.57;6.82;;;;;;;7.60;100.00;101329.31;5053316;28;20483;-68
2022/01/02 01:05:53;;;;;;;11.15;7.53;;;;;;;7.54;100.00;101322.53;5071173;28;20044;-68
2022/01/02 01:08:22;;;;;;;12.25;8.60;;;;;;;7.58;100.00;101336.56;5070900;28;20116;-67
2022/01/02 01:10:47;;;;;;;12.07;7.47;;;;;;;7.54;100.00;101335.03;5053405;28;20021;-66
2022/01/02 01:13:14;;;;;;;11.20;7.82;;;;;;;7.53;100.00;101341.28;5052935;28;20025;-67
2022/01/02 01:15:39;;;;;;;13.80;7.93;;;;;;;7.43;100.00;101334.78;5070828;28;20045;-67
2022/01/02 01:18:05;;;;;;;10.60;7.57;;;;;;;7.43;100.00;101334.78;5071071;28;20033;-67
2022/01/02 01:20:40;;;;;;;11.05;7.55;;;;;;;7.40;100.00;101341.16;5052563;28;20036;-68
2022/01/02 01:23:06;;;;;;;13.98;7.78;;;;;;;7.34;100.00;101340.66;5052644;28;20563;-68
2022/01/02 01:25:33;;;;;;;11.25;7.35;;;;;;;7.27;100.00;101328.63;5070376;28;20090;-67
2022/01/02 01:28:00;;;;;;;10.38;7.20;;;;;;;7.28;100.00;101349.03;5070107;28;20042;-68
2022/01/02 01:30:27;;;;;;;14.55;7.88;;;;;;;7.18;100.00;101334.47;5052694;28;20035;-67
2022/01/02 01:32:53;;;;;;;14.20;7.88;;;;;;;7.19;100.00;101336.22;5070710;28;20493;-67
2022/01/02 01:35:20;;;;;;;10.73;7.07;;;;;;;7.11;100.00;101330.47;5052344;28;20028;-67
2022/01/02 01:37:45;;;;;;;14.02;7.65;;;;;;;7.10;100.00;101336.75;5070627;28;20469;-67
2022/01/02 01:40:12;;;;;;;12.77;7.32;;;;;;;7.04;100.00;101333.47;5053403;28;20116;-68
2022/01/02 01:42:44;;;;;;;10.88;7.38;;;;;;;7.02;100.00;101344.34;5032392;28;20032;-67
2022/01/02 01:47:45;;;;;;;11.37;7.43;;;;;;;6.90;100.00;101340.53;5070547;28;20460;-67
2022/01/02 01:50:11;;;;;;;11.68;7.72;;;;;;;6.87;100.00;101332.75;5066266;28;20037;-67
2022/01/02 01:52:37;;;;;;;12.07;7.65;;;;;;;6.86;100.00;101331.88;5050276;28;20033;-67
2022/01/02 01:55:04;;;;;;;11.32;7.97;;;;;;;6.85;100.00;101330.16;5065144;28;20024;-68
2022/01/02 01:57:29;;;;;;;11.90;7.85;;;;;;;6.77;100.00;101312.84;5067620;28;20064;-67
2022/01/02 01:59:55;;;;;;;12.23;8.40;;;;;;;6.76;100.00;101317.34;5069399;28;20452;-66
2022/01/02 02:02:22;;;;;;;14.15;8.80;;;;;;;6.66;100.00;101304.59;5069710;28;20107;-66
2022/01/02 02:04:48;;;;;;;14.45;8.05;;;;;;;6.76;100.00;101328.00;5069182;28;20059;-67
2022/01/02 02:07:14;;;;;;;14.85;9.07;;;;;;;6.71;100.00;101323.88;5067496;28;20531;-67
2022/01/02 02:10:02;;;;;;;15.25;8.10;;;;;;;6.65;100.00;101327.72;5049321;28;20120;-67
2022/01/02 02:12:29;;;;;;;13.60;7.85;;;;;;;6.63;100.00;101323.44;5067464;28;20059;-68
2022/01/02 02:14:55;;;;;;;11.02;8.27;;;;;;;6.60;100.00;101321.81;5056096;28;20132;-67
2022/01/02 02:17:22;;;;;;;12.63;7.45;;;;;;;6.55;100.00;101321.19;5051059;28;20035;-67
2022/01/02 02:19:49;;;;;;;13.63;8.10;;;;;;;6.53;100.00;101320.44;5068220;28;20033;-67
2022/01/02 02:22:14;;;;;;;15.63;8.45;;;;;;;6.51;100.00;101324.09;5052088;28;20415;-67
2022/01/02 02:24:40;;;;;;;12.40;8.45;;;;;;;6.44;100.00;101310.28;5050756;28;20066;-68
2022/01/02 02:27:06;;;;;;;11.85;7.38;;;;;;;6.42;100.00;101319.31;5068577;28;20485;-67
2022/01/02 02:29:32;;;;;;;12.05;7.75;;;;;;;6.40;100.00;101321.19;5068455;28;20032;-68
2022/01/02 02:31:58;;;;;;;13.68;7.45;;;;;;;6.35;100.00;101318.75;5055620;28;20033;-67
2022/01/02 02:34:24;;;;;;;11.80;8.20;;;;;;;6.31;100.00;101311.00;5053719;28;20154;-68
2022/01/02 02:36:49;;;;;;;9.05;7.18;;;;;;;6.24;100.00;101307.84;5063417;28;20116;-68
2022/01/02 02:39:15;;;;;;;13.30;8.70;;;;;;;6.26;100.00;101315.75;5052268;28;20033;-66
2022/01/02 02:41:42;;;;;;;10.95;7.55;;;;;;;6.23;100.00;101308.75;5049123;28;20524;-67
2022/01/02 02:44:32;;;;;;;11.82;8.07;;;;;;;6.20;100.00;101300.97;5049571;28;20078;-68
2022/01/02 02:49:39;;;;;;;12.68;8.20;;;;;;;6.15;100.00;101302.13;5049415;28;20063;-67
2022/01/02 02:52:12;;;;;;;13.55;8.52;;;;;;;6.17;100.00;101306.47;5049526;28;20036;-67
2022/01/02 02:54:37;;;;;;;13.73;8.20;;;;;;;6.22;100.00;101314.16;5049171;28;20044;-67
2022/01/02 02:57:11;;;;;;;12.75;8.13;;;;;;;6.23;100.00;101314.09;5049605;28;20032;-67
2022/01/02 02:59:37;;;;;;;13.80;8.98;;;;;;;6.27;100.00;101314.78;5031379;28;20032;-67
2022/01/02 03:02:02;;;;;;;14.68;8.73;;;;;;;6.22;100.00;101299.06;5056822;28;20040;-67
2022/01/02 03:04:28;;;;;;;12.35;8.32;;;;;;;6.23;100.00;101300.78;5069211;28;20036;-68
2022/01/02 03:06:54;;;;;;;12.75;8.85;;;;;;;6.24;100.00;101312.28;5050730;28;20052;-67
2022/01/02 03:09:37;;;;;;;13.68;7.82;;;;;;;6.10;100.00;101290.88;5048832;28;20032;-67
2022/01/02 03:12:03;;;;;;;12.18;8.10;;;;;;;6.15;100.00;101308.34;5049182;28;20036;-67
2022/01/02 03:14:28;;;;;;;13.88;8.55;;;;;;;6.16;100.00;101312.69;5048755;28;20139;-67
2022/01/02 03:16:54;;;;;;;12.88;8.00;;;;;;;6.14;100.00;101313.75;5049410;28;20315;-69
2022/01/02 03:19:20;;;;;;;11.05;7.70;;;;;;;6.08;100.00;101306.06;5048968;28;20492;-67
2022/01/02 03:21:46;;;;;;;14.68;8.68;;;;;;;6.09;100.00;101306.00;5048850;28;20033;-67
2022/01/02 03:24:11;;;;;;;12.20;7.75;;;;;;;6.07;100.00;101307.03;5048882;28;20021;-68
2022/01/02 03:26:36;;;;;;;13.85;7.82;;;;;;;6.04;100.00;101307.19;5059875;28;20097;-67
2022/01/02 03:29:02;;;;;;;14.70;7.85;;;;;;;6.05;100.00;101301.78;5054655;28;20041;-67
2022/01/02 03:31:28;;;;;;;13.00;8.63;;;;;;;6.06;100.00;101303.50;5056531;28;20516;-66
2022/01/02 03:33:53;;;;;;;12.13;8.32;;;;;;;6.03;100.00;101295.66;5064351;28;20138;-67
2022/01/02 03:36:19;;;;;;;10.85;7.40;;;;;;;5.97;100.00;101288.00;5048673;28;20048;-66
2022/01/02 03:38:44;;;;;;;12.40;7.82;;;;;;;5.97;100.00;101296.00;5048631;28;20051;-67
2022/01/02 03:41:10;;;;;;;14.43;8.95;;;;;;;5.91;100.00;101291.03;5030877;28;20025;-67
2022/01/02 03:43:35;;;;;;;11.88;7.82;;;;;;;5.86;100.00;101279.75;5065711;28;20035;-68
2022/01/02 03:46:02;;;;;;;11.25;7.57;;;;;;;5.95;100.00;101289.91;5068741;28;20493;-68
2022/01/02 03:48:29;;;;;;;12.25;8.65;;;;;;;5.91;100.00;101291.03;5050249;28;20037;-67
2022/01/02 03:50:55;;;;;;;10.75;7.50;;;;;;;5.90;100.00;101283.13;5058358;28;20450;-66
2022/01/02 03:53:20;;;;;;;11.43;7.47;;;;;;;5.83;100.00;101274.56;5068259;28;20117;-66
2022/01/02 03:55:46;;;;;;;12.05;7.50;;;;;;;5.81;100.00;101284.44;5068147;28;20090;-66
2022/01/02 03:58:11;;;;;;;11.48;7.57;;;;;;;5.80;100.00;101290.69;5068533;28;20040;-67
2022/01/02 04:00:37;;;;;;;15.10;8.35;;;;;;;5.78;100.00;101289.03;5068201;28;20033;-67
2022/01/02 04:03:02;;;;;;;13.30;8.88;;;;;;;5.76;100.00;101293.56;5050339;28;20039;-67
2022/01/02 04:05:29;;;;;;;10.32;7.50;;;;;;;5.75;100.00;101287.41;5067676;28;20024;-67
2022/01/02 04:07:55;;;;;;;12.75;8.43;;;;;;;5.70;100.00;101273.47;5068083;28;20025;-68
2022/01/02 04:10:20;;;;;;;14.35;7.82;;;;;;;5.73;100.00;101294.59;5068033;28;20134;-67
2022/01/02 04:12:46;;;;;;;12.45;8.27;;;;;;;5.68;100.00;101286.00;5050356;28;20117;-68
2022/01/02 04:15:13;;;;;;;11.52;7.80;;;;;;;5.67;100.00;101288.75;5068185;28;20521;-67
2022/01/02 04:17:40;;;;;;;14.77;7.72;;;;;;;5.66;100.00;101290.56;5067841;28;20377;-66
2022/01/02 04:20:08;;;;;;;14.40;7.70;;;;;;;5.64;100.00;101289.75;5049993;28;20499;-68
2022/01/02 04:22:34;;;;;;;14.77;8.70;;;;;;;5.64;100.00;101291.56;5066973;28;20129;-66
2022/01/02 04:24:59;;;;;;;14.60;8.38;;;;;;;5.55;100.00;101276.09;5068010;28;20477;-66
2022/01/02 04:27:28;;;;;;;12.82;8.80;;;;;;;5.60;100.00;101293.53;5068103;28;20426;-66
2022/01/02 04:29:54;;;;;;;12.52;8.35;;;;;;;5.55;100.00;101292.88;5068315;28;20482;-67
2022/01/02 04:32:20;;;;;;;11.77;7.32;;;;;;;5.50;100.00;101292.28;5067724;28;20093;-66
2022/01/02 04:34:45;;;;;;;12.10;8.00;;;;;;;5.48;100.00;101290.66;5049871;28;20020;-67
2022/01/02 04:37:12;;;;;;;8.85;6.63;;;;;;;5.37;100.00;101272.56;5060864;28;20028;-67
2022/01/02 04:39:38;;;;;;;10.75;7.38;;;;;;;5.41;100.00;101290.09;5029687;28;20025;-67
2022/01/02 04:42:05;;;;;;;12.77;7.60;;;;;;;5.37;100.00;101291.19;5047881;28;20017;-67
2022/01/02 04:44:30;;;;;;;10.88;8.02;;;;;;;5.23;100.00;101272.44;5047663;28;20064;-67
2022/01/02 04:46:56;;;;;;;10.05;6.85;;;;;;;5.30;100.00;101288.91;5067760;28;20127;-67
2022/01/02 04:49:22;;;;;;;12.23;7.72;;;;;;;5.27;100.00;101294.38;5067298;28;20052;-67
2022/01/02 04:51:47;;;;;;;11.25;7.05;;;;;;;5.16;100.00;101286.94;5067983;28;20052;-67
2022/01/02 04:54:14;;;;;;;11.68;7.72;;;;;;;5.17;100.00;101290.47;5067865;28;20107;-67
2022/01/02 04:56:39;;;;;;;10.68;6.90;;;;;;;5.15;100.00;101287.00;5067619;28;20087;-67
2022/01/02 04:59:05;;;;;;;10.48;7.13;;;;;;;5.13;100.00;101291.56;5049971;28;20724;-67
2022/01/02 05:01:30;;;;;;;11.02;7.00;;;;;;;5.10;100.00;101286.41;5062791;28;20032;-67
2022/01/02 05:03:56;;;;;;;13.93;7.82;;;;;;;4.96;100.00;101278.25;5071492;28;20020;-66
2022/01/02 05:06:21;;;;;;;8.95;6.85;;;;;;;5.02;100.00;101289.44;5066698;28;20124;-67
2022/01/02 05:08:47;;;;;;;11.98;8.05;;;;;;;4.96;100.00;101283.59;5051232;28;20036;-67
2022/01/02 05:11:16;;;;;;;10.77;7.43;;;;;;;4.87;100.00;101271.56;5046549;28;20039;-66
2022/01/02 05:13:43;;;;;;;13.57;6.80;;;;;;;4.88;100.00;101281.28;5070981;28;20837;-67
2022/01/02 05:16:08;;;;;;;11.75;7.28;;;;;;;4.86;100.00;101285.81;5071056;28;20029;-66
2022/01/02 05:18:34;;;;;;;13.90;7.93;;;;;;;4.85;100.00;101292.06;5070777;28;20555;-66
2022/01/02 05:20:59;;;;;;;11.73;7.18;;;;;;;4.89;100.00;101303.41;5071180;28;20020;-66
2022/01/02 05:23:25;;;;;;;13.88;8.18;;;;;;;4.86;100.00;101300.91;5070689;28;20028;-66
2022/01/02 05:25:52;;;;;;;13.20;8.02;;;;;;;4.87;100.00;101306.13;5052728;28;20039;-66
2022/01/02 05:28:17;;;;;;;14.95;9.05;;;;;;;4.85;100.00;101296.50;5070973;28;20044;-67
2022/01/02 05:30:43;;;;;;;16.05;8.68;;;;;;;4.87;100.00;101298.16;5070640;28;20029;-67
2022/01/02 05:33:10;;;;;;;15.23;9.65;;;;;;;4.89;100.00;101298.09;5070807;28;20086;-67
2022/01/02 05:35:36;;;;;;;13.60;8.63;;;;;;;4.89;100.00;101298.09;5067946;28;20029;-67
2022/01/02 05:38:02;;;;;;;15.45;9.65;;;;;;;4.78;100.00;101272.06;5049172;28;20035;-66
2022/01/02 05:40:31;;;;;;;17.77;10.30;;;;;;;4.89;100.00;101287.44;5050683;28;20083;-67
2022/01/02 05:43:01;;;;;;;17.80;11.30;;;;;;;4.89;100.00;101276.81;5050832;28;20499;-67
2022/01/02 05:45:27;;;;;;;21.83;12.45;;;;;;;4.92;100.00;101277.53;5063613;28;20036;-67
2022/01/02 05:47:52;;;;;;;18.30;10.93;;;;;;;4.95;100.00;101277.38;5052384;28;20095;-66
2022/01/02 05:50:18;;;;;;;15.20;10.52;;;;;;;4.92;100.00;101269.56;5050531;28;20032;-67
2022/01/02 05:52:43;;;;;;;18.42;10.43;;;;;;;4.93;100.00;101273.09;5063466;28;20024;-67
2022/01/02 05:55:09;;;;;;;15.93;10.15;;;;;;;4.91;100.00;101277.63;5070459;28;20020;-67
2022/01/02 05:57:35;;;;;;;17.92;11.30;;;;;;;4.81;100.00;101261.28;5053854;28;20031;-67
2022/01/02 06:00:01;;;;;;;15.30;9.60;;;;;;;4.87;100.00;101282.22;5050459;28;20025;-67
2022/01/02 06:02:26;;;;;;;15.98;10.15;;;;;;;4.82;100.00;101273.63;5051877;28;20025;-67
2022/01/02 06:04:51;;;;;;;17.52;9.63;;;;;;;4.81;100.00;101279.00;5068227;28;20036;-67
2022/01/02 06:07:17;;;;;;;15.32;9.60;;;;;;;4.82;100.00;101292.22;5051564;28;20032;-68
2022/01/02 06:09:42;;;;;;;16.13;10.45;;;;;;;4.71;100.00;101282.09;5057213;28;20369;-74
2022/01/02 06:12:08;;;;;;;16.98;10.05;;;;;;;4.73;100.00;101292.66;5045629;28;20032;-74
2022/01/02 06:14:33;;;;;;;16.42;9.55;;;;;;;4.77;100.00;101298.69;5057694;28;20052;-75
2022/01/02 06:16:59;;;;;;;17.15;10.45;;;;;;;4.67;100.00;101292.94;5055741;28;20025;-74
2022/01/02 06:19:24;;;;;;;20.15;10.38;;;;;;;4.72;100.00;101296.25;5056951;28;20653;-75
2022/01/02 06:21:50;;;;;;;20.00;11.75;;;;;;;4.72;100.00;101305.09;5044690;28;20025;-74
2022/01/02 06:24:16;;;;;;;19.10;12.23;;;;;;;4.77;100.00;101304.84;5068709;28;20024;-75
2022/01/02 06:26:41;;;;;;;23.58;12.80;;;;;;;4.71;100.00;101298.06;5061432;28;20040;-75
2022/01/02 06:29:06;;;;;;;23.35;13.07;;;;;;;4.77;100.00;101304.84;5067134;28;20029;-73
2022/01/02 06:31:32;;;;;;;22.30;13.50;;;;;;;4.78;100.00;101296.81;5066369;28;20082;-74
2022/01/02 06:33:57;;;;;;;24.02;13.60;;;;;;;4.83;100.00;101309.88;5067287;28;20071;-74
2022/01/02 06:36:23;;;;;;;23.80;13.88;;;;;;;4.81;100.00;101298.47;5059412;28;20040;-74
2022/01/02 06:38:49;;;;;;;22.35;13.50;;;;;;;4.81;100.00;101294.94;5052422;28;20028;-75
2022/01/02 06:41:15;;;;;;;21.52;12.25;;;;;;;4.82;100.00;101289.56;5060281;28;20040;-75
2022/01/02 06:43:41;;;;;;;20.33;13.02;;;;;;;4.82;100.00;101289.56;5066372;28;20032;-75
2022/01/02 06:46:07;;;;;;;21.85;13.65;;;;;;;4.81;100.00;101284.31;5065258;28;20028;-75
2022/01/02 06:48:32;;;;;;;20.65;13.00;;;;;;;4.80;100.00;101286.09;5065915;28;20074;-74
2022/01/02 06:50:58;;;;;;;18.13;11.57;;;;;;;4.83;100.00;101280.66;5039148;28;20017;-75
2022/01/02 06:53:23;;;;;;;21.75;13.15;;;;;;;4.83;100.00;101278.00;5056939;28;20020;-74
2022/01/02 06:55:49;;;;;;;22.85;13.32;;;;;;;4.81;100.00;101271.03;5068376;28;20025;-75
2022/01/02 06:58:14;;;;;;;23.25;12.88;;;;;;;4.89;100.00;101283.00;5069192;28;20047;-75
2022/01/02 07:00:41;;;;;;;23.70;13.95;;;;;;;4.96;100.00;101281.75;5059942;28;20036;-73
2022/01/02 07:03:06;;;;;;;19.67;13.05;;;;;;;4.97;100.00;101279.97;5061932;28;20461;-76
2022/01/02 07:05:32;;;;;;;21.88;13.88;;;;;;;4.95;100.00;101272.06;5062889;28;20082;-75
2022/01/02 07:07:58;;;;;;;24.20;14.18;;;;;;;5.03;100.00;101275.19;5053364;28;20113;-74
2022/01/02 07:10:24;;;;;;;22.88;13.75;;;;;;;5.08;100.00;101281.16;5054529;28;20021;-74
2022/01/02 07:12:49;;;;;;;20.42;12.82;;;;;;;5.07;100.00;101274.13;5064241;28;20036;-75
2022/01/02 07:15:15;;;;;;;22.65;14.65;;;;;;;5.18;100.00;101278.88;5063864;28;20068;-76
2022/01/02 07:17:41;;;;;;;27.80;14.55;;;;;;;5.23;100.00;101287.50;5053260;28;20102;-75
2022/01/02 07:20:08;;;;;;;23.08;13.50;;;;;;;5.26;100.00;101285.56;5062472;28;20036;-75
2022/01/02 07:22:34;;;;;;;22.23;13.45;;;;;;;5.23;100.00;101280.41;5056209;28;20025;-77
2022/01/02 07:24:59;;;;;;;22.42;13.70;;;;;;;5.32;100.00;101298.53;5057807;28;20036;-75
2022/01/02 07:27:25;;;;;;;24.42;14.13;;;;;;;5.32;100.00;101297.69;5055111;28;20048;-76
2022/01/02 07:29:51;;;;;;;18.52;12.65;;;;;;;5.38;100.00;101290.25;5053292;28;20044;-75
2022/01/02 07:32:17;;;;;;;25.05;13.95;;;;;;;5.32;100.00;101284.38;5055615;28;20024;-74
2022/01/02 07:34:44;;;;;;;21.92;14.13;;;;;;;5.42;100.00;101297.13;5065127;28;20029;-68
2022/01/02 07:37:10;;;;;;;24.40;14.60;;;;;;;5.43;100.00;101290.88;5060640;28;20032;-66
2022/01/02 07:39:36;;;;;;;21.95;14.55;;;;;;;5.50;100.00;101292.28;5046157;28;20429;-66
2022/01/02 07:42:02;;;;;;;26.10;15.27;;;;;;;5.54;100.00;101288.50;5058723;28;20113;-67
2022/01/02 07:44:28;;;;;;;23.75;14.25;;;;;;;5.60;100.00;101290.00;5049427;28;20064;-66
2022/01/02 07:46:53;;;;;;;21.65;14.05;;;;;;;5.61;100.00;101283.75;5062213;28;20422;-67
2022/01/02 07:49:19;;;;;;;21.85;13.65;;;;;;;5.63;100.00;101277.41;5053973;28;20028;-67
2022/01/02 07:51:44;;;;;;;25.02;14.63;;;;;;;5.66;100.00;101287.88;5043693;28;20032;-67
2022/01/02 07:54:12;;;;;;;23.50;14.88;;;;;;;5.72;100.00;101282.25;5052286;28;20385;-67
2022/01/02 07:56:38;;;;;;;26.20;14.38;;;;;;;5.77;100.00;101274.88;5061818;28;20426;-68
2022/01/02 07:59:04;;;;;;;24.63;15.82;;;;;;;5.81;100.00;101264.94;5051997;28;20405;-68
2022/01/02 08:01:29;;;;;;;25.88;15.48;;;;;;;5.86;100.00;101263.75;5043241;28;20040;-67
2022/01/02 08:03:55;;;;;;;24.95;14.93;;;;;;;5.94;100.00;101266.88;5049006;28;20381;-67
2022/01/02 08:06:20;;;;;;;25.13;15.93;;;;;;;6.01;100.00;101270.94;5062113;28;20032;-67
2022/01/02 08:08:46;;;;;;;26.48;16.05;;;;;;;6.01;100.00;101259.41;5050039;28;20028;-67
2022/01/02 08:11:15;;;;;;;27.90;16.73;;;;;;;6.12;100.00;101271.22;5049676;28;20033;-67
2022/01/02 08:13:41;;;;;;;21.60;15.65;;;;;;;6.19;100.00;101266.41;5056251;28;20515;-67
2022/01/02 08:16:06;;;;;;;24.40;14.75;;;;;;;6.22;100.00;101260.91;5051716;28;20063;-67
2022/01/02 08:18:32;;;;;;;23.65;13.90;;;;;;;6.29;100.00;101262.31;5048381;28;20128;-67
2022/01/02 08:20:57;;;;;;;23.75;15.15;;;;;;;6.37;100.00;101265.38;5062821;28;20057;-67
2022/01/02 08:23:23;;;;;;;27.20;15.23;;;;;;;6.45;100.00;101263.19;5056590;28;20025;-67
2022/01/02 08:25:49;;;;;;;23.30;15.50;;;;;;;6.48;100.00;101266.50;5059301;28;20069;-66
2022/01/02 08:28:15;;;;;;;25.55;15.02;;;;;;;6.54;100.00;101257.31;5062551;28;20055;-67
2022/01/02 08:30:43;;;;;;;23.30;14.70;;;;;;;6.51;100.00;101242.34;5060826;28;20070;-67
2022/01/02 08:33:09;;;;;;;22.33;14.13;;;;;;;6.62;100.00;101245.25;5052393;28;20020;-66
2022/01/02 08:35:34;;;;;;;22.10;13.63;;;;;;;6.71;100.00;101259.91;5057936;28;20033;-68
2022/01/02 08:38:00;;;;;;;22.05;12.85;;;;;;;6.75;100.00;101246.28;5063331;28;20032;-66
2022/01/02 08:40:25;;;;;;;22.48;12.85;;;;;;;6.84;100.00;101252.91;5066554;28;20040;-68
2022/01/02 08:42:51;;;;;;;21.95;12.15;;;;;;;6.88;100.00;101239.31;5065886;28;20105;-67
2022/01/02 08:45:16;;;;;;;20.50;12.02;;;;;;;6.94;100.00;101236.28;5055177;28;20123;-67
2022/01/02 08:47:42;;;;;;;19.10;11.35;;;;;;;7.07;100.00;101237.28;5035312;28;20102;-67
2022/01/02 08:50:07;;;;;;;19.33;11.32;;;;;;;7.14;100.00;101226.25;5065964;28;20029;-67
2022/01/02 08:52:33;;;;;;;14.15;10.23;;;;;;;7.11;100.00;101216.63;5066295;28;20023;-76
2022/01/02 08:54:58;;;;;;;14.70;9.85;;;;;;;7.31;100.00;101237.63;5047243;28;20457;-76
2022/01/02 08:57:24;;;;;;;12.45;9.15;;;;;;;7.36;100.00;101229.34;5057850;28;20071;-76
2022/01/02 08:59:49;;;;;;;12.68;9.20;;;;;;;7.42;100.00;101227.19;5050596;28;20040;-75
2022/01/02 09:02:15;;;;;;;11.65;8.70;;;;;;;7.50;100.00;101216.91;5064098;28;20025;-76
2022/01/02 09:04:40;;;;;;;12.13;8.05;;;;;;;7.59;100.00;101218.13;5063860;28;20038;-76
2022/01/02 09:07:06;;;;;;;14.25;8.82;;;;;;;7.67;100.00;101215.88;5060647;28;20111;-76
2022/01/02 09:09:31;;;;;;;13.75;9.15;;;;;;;7.77;100.00;101219.69;5066725;28;20374;-75
2022/01/02 09:11:56;;;;;;;14.30;8.77;;;;;;;7.85;100.00;101217.38;5066688;28;20035;-78
2022/01/02 09:14:22;;;;;;;12.57;8.35;;;;;;;7.86;100.00;101206.63;5044291;28;20064;-75
2022/01/02 09:16:48;;;;;;;12.85;8.50;;;;;;;7.97;100.00;101197.94;5063803;28;20024;-76
2022/01/02 09:19:13;;;;;;;14.05;8.38;;;;;;;8.06;100.00;101208.88;5058760;28;20028;-77
2022/01/02 09:21:39;;;;;;;13.13;8.80;;;;;;;8.13;100.00;101217.38;5064898;28;20155;-76
2022/01/02 09:24:06;;;;;;;12.52;7.70;;;;;;;8.09;100.00;101186.47;5062396;28;20028;-77
2022/01/02 09:26:31;;;;;;;12.55;8.60;;;;;;;8.28;100.00;101214.63;5062149;28;20111;-77
2022/01/02 09:28:57;;;;;;;14.32;8.80;;;;;;;8.40;100.00;101212.97;5064192;28;20120;-75
2022/01/02 09:31:23;;;;;;;13.30;8.60;;;;;;;8.47;100.00;101208.94;5041719;28;20013;-76
2022/01/02 09:33:48;;;;;;;11.95;7.75;;;;;;;8.43;100.00;101186.91;5055813;28;20032;-75
2022/01/02 09:36:14;;;;;;;12.02;7.85;;;;;;;8.56;100.00;101203.00;5045038;28;20097;-76
2022/01/02 09:38:39;;;;;;;13.98;9.05;;;;;;;8.62;100.00;101186.56;5056349;28;20112;-77
2022/01/02 09:41:05;;;;;;;13.05;9.43;;;;;;;8.71;100.00;101194.81;5059498;28;20028;-77
2022/01/02 09:43:31;;;;;;;13.30;9.07;;;;;;;8.76;100.00;101197.19;5042130;28;20028;-76
2022/01/02 09:45:57;;;;;;;13.73;9.05;;;;;;;8.82;100.00;101188.75;5061388;28;20024;-77
2022/01/02 09:48:23;;;;;;;11.70;8.35;;;;;;;8.83;100.00;101185.97;5039614;28;20508;-77
2022/01/02 09:50:50;;;;;;;11.95;8.20;;;;;;;8.85;100.00;101176.03;5052906;28;20029;-76
2022/01/02 09:53:16;;;;;;;10.65;7.57;;;;;;;8.94;100.00;101190.63;5057778;28;20017;-76
2022/01/02 09:55:41;;;;;;;12.95;7.75;;;;;;;8.96;100.00;101186.00;5063400;28;20467;-76
2022/01/02 09:58:11;;;;;;;12.85;7.43;;;;;;;9.03;100.00;101181.97;5059802;28;20031;-77
2022/01/02 10:00:38;;;;;;;13.02;7.68;;;;;;;9.16;100.00;101170.31;5057584;28;20136;-77
2022/01/02 10:03:08;;;;;;;13.48;9.25;;;;;;;9.23;100.00;101174.28;5059882;28;20381;-77
2022/01/02 10:05:54;;;;;;;12.45;8.20;;;;;;;9.31;100.00;101172.91;5062422;28;20025;-77
2022/01/02 10:08:22;;;;;;;12.73;7.80;;;;;;;9.34;100.00;101162.84;5056881;28;20650;-77
2022/01/02 10:10:47;;;;;;;13.60;8.90;;;;;;;9.40;100.00;101145.50;5060103;28;20103;-77
2022/01/02 10:13:13;;;;;;;14.38;8.82;;;;;;;9.51;100.00;101150.97;5041157;28;20450;-76
2022/01/02 10:15:39;;;;;;;13.18;8.43;;;;;;;9.57;100.00;101153.22;5063806;28;20116;-77
2022/01/02 10:18:06;;;;;;;11.90;8.88;;;;;;;9.61;100.00;101142.16;5066739;28;20028;-76
2022/01/02 10:20:34;;;;;;;14.52;9.63;;;;;;;9.67;100.00;101143.56;5059291;28;20083;-77
2022/01/02 10:23:17;;;;;;;13.27;9.40;;;;;;;9.73;100.00;101130.56;5062002;28;20412;-77
2022/01/02 10:25:44;;;;;;;14.60;9.20;;;;;;;9.83;100.00;101133.47;5059559;28;20115;-77
2022/01/02 10:28:27;;;;;;;13.52;8.95;;;;;;;9.87;99.41;101122.41;5058484;28;20041;-77
2022/01/02 10:30:59;;;;;;;14.00;8.93;;;;;;;9.92;99.13;101119.38;5057180;28;20490;-77
2022/01/02 10:33:28;;;;;;;13.85;8.00;;;;;;;9.99;98.70;101113.47;5060074;28;20033;-76
2022/01/02 10:36:01;;;;;;;13.85;8.10;;;;;;;10.05;98.41;101099.63;5056504;28;20511;-77
2022/01/02 10:38:28;;;;;;;10.50;6.88;;;;;;;10.13;97.88;101097.25;5037923;28;20020;-78
2022/01/02 10:40:54;;;;;;;12.05;6.82;;;;;;;10.17;97.65;101101.47;5057604;28;20033;-77
2022/01/02 10:43:34;;;;;;;9.98;7.18;;;;;;;10.30;95.98;101088.00;5065062;28;20051;-77
2022/01/02 10:46:07;;;;;;;11.57;7.47;;;;;;;10.32;95.94;101072.66;5059668;28;20085;-77
2022/01/02 10:48:40;;;;;;;9.95;6.95;;;;;;;10.40;95.91;101076.47;5064525;28;20080;-77
2022/01/02 10:51:14;;;;;;;12.30;6.38;;;;;;;10.45;95.67;101082.31;5062360;28;20027;-77
2022/01/02 10:53:55;;;;;;;10.45;6.57;;;;;;;10.51;95.66;101073.81;5058513;28;20033;-77
2022/01/02 10:56:23;;;;;;;10.18;5.43;;;;;;;10.55;94.98;101066.41;5059541;28;20028;-76
2022/01/02 10:58:49;;;;;;;9.70;5.78;;;;;;;10.61;95.04;101061.41;5055419;28;20044;-78
2022/01/02 11:01:15;;;;;;;11.23;6.40;;;;;;;10.62;94.88;101052.41;5045597;28;20016;-78
2022/01/02 11:03:44;;;;;;;11.75;6.85;;;;;;;10.74;94.17;101067.56;5067504;28;20032;-77
2022/01/02 11:06:13;;;;;;;11.48;6.90;;;;;;;10.79;94.09;101065.38;5061637;28;20199;-77
2022/01/02 11:08:43;;;;;;;12.27;7.35;;;;;;;10.86;94.24;101068.44;5041053;28;20623;-77
2022/01/02 11:11:09;;;;;;;9.15;6.78;;;;;;;10.92;94.04;101066.16;5063678;28;20033;-78
2022/01/02 11:13:35;;;;;;;11.68;7.28;;;;;;;11.02;93.64;101055.53;5066375;28;20044;-78
2022/01/02 11:16:03;;;;;;;11.57;8.02;;;;;;;11.07;91.84;101040.78;5066181;28;20055;-78
2022/01/02 11:18:34;;;;;;;9.45;6.63;;;;;;;11.14;92.04;101042.03;5043854;28;20583;-77